sensor_id;sensor_type;location;lat;lon;timestamp;pressure;altitude;pressure_sealevel;temperature;humidity
5988;BME280;3021;51.000;6.980;2023-05-11T00:03:30;67861.13;;;14.00;100.00
5988;BME280;3021;51.000;6.980;2023-05-11T00:05:55;67857.63;;;13.97;100.00
5988;BME280;3021;51.000;6.980;2023-05-11T00:08:20;67862.25;;;14.02;100.00
5988;BME280;3021;51.000;6.980;2023-05-11T00:10:46;67847.66;;;13.86;100.00
5988;BME280;3021;51.000;6.980;2023-05-11T00:13:12;67837.22;;;13.77;100.00
5988;BME280;3021;51.000;6.980;2023-05-11T00:15:37;67835.47;;;13.75;100.00
5988;BME280;3021;51.000;6.980;2023-05-11T00:18:03;67828.09;;;13.71;100.00
5988;BME280;3021;51.000;6.980;2023-05-11T00:20:28;67822.31;;;13.66;100.00
5988;BME280;3021;51.000;6.980;2023-05-11T00:22:53;67818.22;;;13.62;100.00
5988;BME280;3021;51.000;6.980;2023-05-11T00:25:19;67805.94;;;13.49;100.00
5988;BME280;3021;51.000;6.980;2023-05-11T00:27:44;67801.44;;;13.47;100.00
5988;BME280;3021;51.000;6.980;2023-05-11T00:30:11;67799.69;;;13.46;100.00
5988;BME280;3021;51.000;6.980;2023-05-11T00:32:36;67795.50;;;13.40;100.00
5988;BME280;3021;51.000;6.980;2023-05-11T00:35:01;67794.34;;;13.39;100.00
5988;BME280;3021;51.000;6.980;2023-05-11T00:37:27;67787.53;;;13.35;100.00
5988;BME280;3021;51.000;6.980;2023-05-11T00:39:52;67778.09;;;13.24;100.00
5988;BME280;3021;51.000;6.980;2023-05-11T00:42:17;67763.63;;;13.11;100.00
5988;BME280;3021;51.000;6.980;2023-05-11T00:44:43;67759.56;;;13.08;100.00
5988;BME280;3021;51.000;6.980;2023-05-11T00:47:08;67754.94;;;13.04;100.00
5988;BME280;3021;51.000;6.980;2023-05-11T00:49:34;67755.09;;;13.06;100.00
5988;BME280;3021;51.000;6.980;2023-05-11T00:51:59;67753.34;;;13.05;100.00
5988;BME280;3021;51.000;6.980;2023-05-11T00:54:27;67750.88;;;13.00;100.00
5988;BME280;3021;51.000;6.980;2023-05-11T00:56:52;67744.09;;;12.96;100.00
5988;BME280;3021;51.000;6.980;2023-05-11T00:59:18;67748.00;;;12.98;100.00
5988;BME280;3021;51.000;6.980;2023-05-11T01:01:43;67741.03;;;12.91;100.00
5988;BME280;3021;51.000;6.980;2023-05-11T01:04:08;67717.88;;;12.71;100.00
5988;BME280;3021;51.000;6.980;2023-05-11T01:09:43;67705.72;;;12.60;100.00
5988;BME280;3021;51.000;6.980;2023-05-11T01:12:30;67702.81;;;12.57;100.00
5988;BME280;3021;51.000;6.980;2023-05-11T01:15:19;67700.66;;;12.58;100.00
5988;BME280;3021;51.000;6.980;2023-05-11T01:17:55;67709.78;;;12.64;100.00
5988;BME280;3021;51.000;6.980;2023-05-11T01:20:26;67709.19;;;12.63;100.00
5988;BME280;3021;51.000;6.980;2023-05-11T01:31:29;67717.03;;;12.75;100.00
5988;BME280;3021;51.000;6.980;2023-05-11T01:33:59;67730.63;;;12.82;100.00
5988;BME280;3021;51.000;6.980;2023-05-11T01:36:33;67738.13;;;12.89;100.00
5988;BME280;3021;51.000;6.980;2023-05-11T01:39:06;67731.34;;;12.85;100.00
5988;BME280;3021;51.000;6.980;2023-05-11T01:41:34;67736.53;;;12.90;100.00
5988;BME280;3021;51.000;6.980;2023-05-11T01:44:04;67747.41;;;12.97;100.00
5988;BME280;3021;51.000;6.980;2023-05-11T01:46:32;67755.09;;;13.06;100.00
5988;BME280;3021;51.000;6.980;2023-05-11T01:49:00;67742.19;;;12.92;100.00
5988;BME280;3021;51.000;6.980;2023-05-11T01:51:33;67735.97;;;12.89;100.00
5988;BME280;3021;51.000;6.980;2023-05-11T01:54:01;67725.41;;;12.77;100.00
5988;BME280;3021;51.000;6.980;2023-05-11T01:56:29;67718.59;;;12.74;100.00
5988;BME280;3021;51.000;6.980;2023-05-11T01:58:55;67710.50;;;12.67;100.00
5988;BME280;3021;51.000;6.980;2023-05-11T02:01:23;67710.34;;;12.64;100.00
5988;BME280;3021;51.000;6.980;2023-05-11T02:03:50;67705.72;;;12.60;100.00
5988;BME280;3021;51.000;6.980;2023-05-11T02:06:17;67707.19;;;12.66;100.00
5988;BME280;3021;51.000;6.980;2023-05-11T02:08:44;67707.59;;;12.64;100.00
5988;BME280;3021;51.000;6.980;2023-05-11T02:11:11;67704.28;;;12.64;100.00
5988;BME280;3021;51.000;6.980;2023-05-11T02:13:38;67705.31;;;12.62;100.00
5988;BME280;3021;51.000;6.980;2023-05-11T02:16:06;67707.59;;;12.64;100.00
5988;BME280;3021;51.000;6.980;2023-05-11T02:18:33;67716.72;;;12.70;100.00
5988;BME280;3021;51.000;6.980;2023-05-11T02:21:00;67716.88;;;12.72;100.00
5988;BME280;3021;51.000;6.980;2023-05-11T02:23:29;67719.06;;;12.72;100.00
5988;BME280;3021;51.000;6.980;2023-05-11T02:25:55;67725.41;;;12.77;100.00
5988;BME280;3021;51.000;6.980;2023-05-11T02:28:21;67720.91;;;12.76;100.00
5988;BME280;3021;51.000;6.980;2023-05-11T02:30:49;67721.50;;;12.76;100.00
5988;BME280;3021;51.000;6.980;2023-05-11T02:33:22;67729.47;;;12.81;100.00
5988;BME280;3021;51.000;6.980;2023-05-11T02:35:50;67731.78;;;12.83;100.00
5988;BME280;3021;51.000;6.980;2023-05-11T02:38:17;67728.28;;;12.80;100.00
5988;BME280;3021;51.000;6.980;2023-05-11T02:40:46;67725.41;;;12.77;100.00
5988;BME280;3021;51.000;6.980;2023-05-11T02:43:19;67734.09;;;12.85;100.00
5988;BME280;3021;51.000;6.980;2023-05-11T02:45:46;67740.03;;;12.93;100.00
5988;BME280;3021;51.000;6.980;2023-05-11T02:48:21;67750.44;;;13.02;100.00
5988;BME280;3021;51.000;6.980;2023-05-11T02:50:49;67763.03;;;13.11;100.00
5988;BME280;3021;51.000;6.980;2023-05-11T02:53:17;67766.66;;;13.17;100.00
5988;BME280;3021;51.000;6.980;2023-05-11T02:55:44;67773.59;;;13.23;100.00
5988;BME280;3021;51.000;6.980;2023-05-11T02:58:10;67786.19;;;13.31;100.00
5988;BME280;3021;51.000;6.980;2023-05-11T03:00:35;67781.72;;;13.30;100.00
5988;BME280;3021;51.000;6.980;2023-05-11T03:03:02;67785.19;;;13.33;100.00
5988;BME280;3021;51.000;6.980;2023-05-11T03:05:28;67784.63;;;13.32;100.00
5988;BME280;3021;51.000;6.980;2023-05-11T03:07:56;67793.19;;;13.38;100.00
5988;BME280;3021;51.000;6.980;2023-05-11T03:10:24;67793.31;;;13.40;100.00
5988;BME280;3021;51.000;6.980;2023-05-11T03:12:51;67793.31;;;13.40;100.00
5988;BME280;3021;51.000;6.980;2023-05-11T03:15:16;67798.41;;;13.42;100.00
5988;BME280;3021;51.000;6.980;2023-05-11T03:17:42;67795.50;;;13.40;100.00
5988;BME280;3021;51.000;6.980;2023-05-11T03:20:08;67802.88;;;13.44;100.00
5988;BME280;3021;51.000;6.980;2023-05-11T03:22:35;67801.31;;;13.45;100.00
5988;BME280;3021;51.000;6.980;2023-05-11T03:25:02;67802.00;;;13.48;100.00
5988;BME280;3021;51.000;6.980;2023-05-11T03:27:28;67800.28;;;13.46;100.00
5988;BME280;3021;51.000;6.980;2023-05-11T03:29:54;67802.59;;;13.48;100.00
5988;BME280;3021;51.000;6.980;2023-05-11T03:32:21;67811.72;;;13.54;100.00
5988;BME280;3021;51.000;6.980;2023-05-11T03:34:46;67813.03;;;13.58;100.00
5988;BME280;3021;51.000;6.980;2023-05-11T03:37:13;67811.88;;;13.57;100.00
5988;BME280;3021;51.000;6.980;2023-05-11T03:39:42;67813.59;;;13.58;100.00
5988;BME280;3021;51.000;6.980;2023-05-11T03:42:11;67813.59;;;13.58;100.00
5988;BME280;3021;51.000;6.980;2023-05-11T03:44:38;67819.25;;;13.61;100.00
5988;BME280;3021;51.000;6.980;2023-05-11T03:47:05;67819.81;;;13.61;100.00
5988;BME280;3021;51.000;6.980;2023-05-11T03:49:32;67814.75;;;13.59;100.00
5988;BME280;3021;51.000;6.980;2023-05-11T03:51:58;67823.28;;;13.64;100.00
5988;BME280;3021;51.000;6.980;2023-05-11T03:54:24;67827.38;;;13.68;100.00
5988;BME280;3021;51.000;6.980;2023-05-11T03:56:49;67826.50;;;13.72;100.00
5988;BME280;3021;51.000;6.980;2023-05-11T03:59:16;67829.25;;;13.72;100.00
5988;BME280;3021;51.000;6.980;2023-05-11T04:01:42;67829.81;;;13.73;100.00
5988;BME280;3021;51.000;6.980;2023-05-11T04:04:08;67829.81;;;13.73;100.00
5988;BME280;3021;51.000;6.980;2023-05-11T04:06:33;67832.16;;;13.75;100.00
5988;BME280;3021;51.000;6.980;2023-05-11T04:08:59;67833.28;;;13.76;100.00
5988;BME280;3021;51.000;6.980;2023-05-11T04:11:24;67835.03;;;13.77;100.00
5988;BME280;3021;51.000;6.980;2023-05-11T04:13:51;67834.91;;;13.75;100.00
5988;BME280;3021;51.000;6.980;2023-05-11T04:16:16;67830.97;;;13.74;100.00
5988;BME280;3021;51.000;6.980;2023-05-11T04:18:42;67830.84;;;13.71;100.00
5988;BME280;3021;51.000;6.980;2023-05-11T04:21:07;67827.50;;;13.71;100.00
5988;BME280;3021;51.000;6.980;2023-05-11T04:23:32;67826.91;;;13.70;100.00
5988;BME280;3021;51.000;6.980;2023-05-11T04:25:58;67825.19;;;13.69;100.00
5988;BME280;3021;51.000;6.980;2023-05-11T04:28:23;67826.19;;;13.67;100.00
5988;BME280;3021;51.000;6.980;2023-05-11T04:30:53;67822.88;;;13.67;100.00
5988;BME280;3021;51.000;6.980;2023-05-11T04:33:18;67826.34;;;13.70;100.00
5988;BME280;3021;51.000;6.980;2023-05-11T04:35:44;67830.41;;;13.73;100.00
5988;BME280;3021;51.000;6.980;2023-05-11T04:38:09;67838.38;;;13.78;100.00
5988;BME280;3021;51.000;6.980;2023-05-11T04:40:35;67837.22;;;13.77;100.00
5988;BME280;3021;51.000;6.980;2023-05-11T04:43:00;67837.22;;;13.77;100.00
5988;BME280;3021;51.000;6.980;2023-05-11T04:45:25;67835.03;;;13.77;100.00
5988;BME280;3021;51.000;6.980;2023-05-11T04:47:51;67842.41;;;13.81;100.00
5988;BME280;3021;51.000;6.980;2023-05-11T04:50:16;67848.78;;;13.87;100.00
5988;BME280;3021;51.000;6.980;2023-05-11T04:52:41;67846.03;;;13.87;100.00
5988;BME280;3021;51.000;6.980;2023-05-11T04:55:07;67847.66;;;13.86;100.00
5988;BME280;3021;51.000;6.980;2023-05-11T04:57:35;67845.47;;;13.87;100.00
5988;BME280;3021;51.000;6.980;2023-05-11T05:00:04;67850.09;;;13.91;100.00
5988;BME280;3021;51.000;6.980;2023-05-11T05:02:30;67856.34;;;13.94;100.00
5988;BME280;3021;51.000;6.980;2023-05-11T05:04:55;67853.72;;;13.96;100.00
5988;BME280;3021;51.000;6.980;2023-05-11T05:07:20;67857.19;;;13.99;100.00
5988;BME280;3021;51.000;6.980;2023-05-11T05:09:45;67857.63;;;13.97;100.00
5988;BME280;3021;51.000;6.980;2023-05-11T05:12:11;67858.94;;;14.01;100.00
5988;BME280;3021;51.000;6.980;2023-05-11T05:14:36;67854.28;;;13.97;100.00
5988;BME280;3021;51.000;6.980;2023-05-11T05:17:01;67867.50;;;14.06;100.00
5988;BME280;3021;51.000;6.980;2023-05-11T05:19:27;67861.25;;;14.03;100.00
5988;BME280;3021;51.000;6.980;2023-05-11T05:21:52;67870.38;;;14.09;100.00
5988;BME280;3021;51.000;6.980;2023-05-11T05:24:17;67873.41;;;14.14;100.00
5988;BME280;3021;51.000;6.980;2023-05-11T05:26:42;67878.47;;;14.16;100.00
5988;BME280;3021;51.000;6.980;2023-05-11T05:29:08;67880.81;;;14.18;100.00
5988;BME280;3021;51.000;6.980;2023-05-11T05:31:33;67886.16;;;14.25;100.00
5988;BME280;3021;51.000;6.980;2023-05-11T05:33:59;67895.16;;;14.28;100.00
5988;BME280;3021;51.000;6.980;2023-05-11T05:36:24;67898.34;;;14.36;100.00
5988;BME280;3021;51.000;6.980;2023-05-11T05:38:49;67909.66;;;14.41;100.00
5988;BME280;3021;51.000;6.980;2023-05-11T05:41:15;67917.91;;;14.51;100.00
5988;BME280;3021;51.000;6.980;2023-05-11T05:43:40;67927.19;;;14.59;100.00
5988;BME280;3021;51.000;6.980;2023-05-11T05:46:06;67931.41;;;14.65;100.00
5988;BME280;3021;51.000;6.980;2023-05-11T05:48:31;67945.19;;;14.75;100.00
5988;BME280;3021;51.000;6.980;2023-05-11T05:50:56;67953.31;;;14.82;100.00
5988;BME280;3021;51.000;6.980;2023-05-11T05:53:23;67968.50;;;14.98;100.00
5988;BME280;3021;51.000;6.980;2023-05-11T05:55:49;67980.00;;;15.06;100.00
5988;BME280;3021;51.000;6.980;2023-05-11T05:58:14;67995.06;;;15.19;100.00
5988;BME280;3021;51.000;6.980;2023-05-11T06:00:39;68013.63;;;15.36;100.00
5988;BME280;3021;51.000;6.980;2023-05-11T06:03:05;68027.69;;;15.51;100.00
5988;BME280;3021;51.000;6.980;2023-05-11T06:05:30;68054.25;;;15.72;100.00
5988;BME280;3021;51.000;6.980;2023-05-11T06:07:55;68097.34;;;16.13;100.00
5988;BME280;3021;51.000;6.980;2023-05-11T06:10:21;68149.47;;;16.56;100.00
5988;BME280;3021;51.000;6.980;2023-05-11T06:12:46;68184.44;;;16.90;100.00
5988;BME280;3021;51.000;6.980;2023-05-11T06:15:12;68201.88;;;17.05;100.00
5988;BME280;3021;51.000;6.980;2023-05-11T06:17:37;68203.75;;;17.09;100.00
5988;BME280;3021;51.000;6.980;2023-05-11T06:20:03;68212.31;;;17.15;100.00
5988;BME280;3021;51.000;6.980;2023-05-11T06:22:30;68234.28;;;17.32;100.00
5988;BME280;3021;51.000;6.980;2023-05-11T06:24:55;68272.63;;;17.66;100.00
5988;BME280;3021;51.000;6.980;2023-05-11T06:27:21;68328.59;;;18.18;100.00
5988;BME280;3021;51.000;6.980;2023-05-11T06:29:46;68376.00;;;18.55;100.00
5988;BME280;3021;51.000;6.980;2023-05-11T06:32:12;68371.63;;;18.56;100.00
5988;BME280;3021;51.000;6.980;2023-05-11T06:34:37;68359.84;;;18.43;100.00
5988;BME280;3021;51.000;6.980;2023-05-11T06:37:03;68356.03;;;18.44;100.00
5988;BME280;3021;51.000;6.980;2023-05-11T06:39:28;68389.06;;;18.71;100.00
5988;BME280;3021;51.000;6.980;2023-05-11T06:41:54;68423.28;;;18.99;100.00
5988;BME280;3021;51.000;6.980;2023-05-11T06:44:20;68413.53;;;18.93;100.00
5988;BME280;3021;51.000;6.980;2023-05-11T06:46:45;68432.72;;;19.10;100.00
5988;BME280;3021;51.000;6.980;2023-05-11T06:49:10;68442.03;;;19.18;100.00
5988;BME280;3021;51.000;6.980;2023-05-11T06:51:36;68421.53;;;18.97;100.00
5988;BME280;3021;51.000;6.980;2023-05-11T06:54:01;68386.16;;;18.69;100.00
5988;BME280;3021;51.000;6.980;2023-05-11T06:56:27;68355.78;;;18.39;100.00
5988;BME280;3021;51.000;6.980;2023-05-11T06:58:53;68322.22;;;18.12;100.00
5988;BME280;3021;51.000;6.980;2023-05-11T07:01:18;68303.47;;;17.93;100.00
5988;BME280;3021;51.000;6.980;2023-05-11T07:03:44;68292.97;;;17.84;100.00
5988;BME280;3021;51.000;6.980;2023-05-11T07:06:09;68297.19;;;17.90;100.00
5988;BME280;3021;51.000;6.980;2023-05-11T07:08:34;68289.63;;;17.83;100.00
5988;BME280;3021;51.000;6.980;2023-05-11T07:11:00;68279.31;;;17.76;100.00
5988;BME280;3021;51.000;6.980;2023-05-11T07:13:25;68269.16;;;17.62;100.00
5988;BME280;3021;51.000;6.980;2023-05-11T07:15:50;68277.28;;;17.70;100.00
5988;BME280;3021;51.000;6.980;2023-05-11T07:18:16;68280.78;;;17.73;100.00
5988;BME280;3021;51.000;6.980;2023-05-11T07:20:41;68254.16;;;17.52;100.00
5988;BME280;3021;51.000;6.980;2023-05-11T07:23:07;68223.81;;;17.22;100.00
5988;BME280;3021;51.000;6.980;2023-05-11T07:25:32;68192.91;;;16.92;100.00
5988;BME280;3021;51.000;6.980;2023-05-11T07:27:57;68176.88;;;16.83;100.00
5988;BME280;3021;51.000;6.980;2023-05-11T07:30:23;68187.69;;;16.88;100.00
5988;BME280;3021;51.000;6.980;2023-05-11T07:32:49;68188.38;;;16.91;100.00
5988;BME280;3021;51.000;6.980;2023-05-11T07:35:14;68204.19;;;17.07;100.00
5988;BME280;3021;51.000;6.980;2023-05-11T07:37:40;68236.16;;;17.36;100.00
5988;BME280;3021;51.000;6.980;2023-05-11T07:40:06;68261.59;;;17.56;100.00
5988;BME280;3021;51.000;6.980;2023-05-11T07:42:32;68280.91;;;17.75;100.00
5988;BME280;3021;51.000;6.980;2023-05-11T07:44:57;68309.53;;;18.03;100.00
5988;BME280;3021;51.000;6.980;2023-05-11T07:47:22;68365.81;;;18.51;100.00
5988;BME280;3021;51.000;6.980;2023-05-11T07:49:49;68396.03;;;18.77;100.00
5988;BME280;3021;51.000;6.980;2023-05-11T07:52:15;68442.59;;;19.19;100.00
5988;BME280;3021;51.000;6.980;2023-05-11T07:54:40;68524.81;;;19.94;100.00
5988;BME280;3021;51.000;6.980;2023-05-11T07:57:06;68649.34;;;21.01;100.00
5988;BME280;3021;51.000;6.980;2023-05-11T07:59:31;68729.69;;;21.70;100.00
5988;BME280;3021;51.000;6.980;2023-05-11T08:01:56;68765.94;;;22.04;100.00
5988;BME280;3021;51.000;6.980;2023-05-11T08:04:22;68837.59;;;22.65;100.00
5988;BME280;3021;51.000;6.980;2023-05-11T08:06:47;68944.63;;;23.64;100.00
5988;BME280;3021;51.000;6.980;2023-05-11T08:09:13;69028.63;;;24.36;100.00
5988;BME280;3021;51.000;6.980;2023-05-11T08:11:39;69036.22;;;24.43;100.00
5988;BME280;3021;51.000;6.980;2023-05-11T08:14:04;68988.91;;;24.01;100.00
5988;BME280;3021;51.000;6.980;2023-05-11T08:16:30;68953.97;;;23.73;100.00
5988;BME280;3021;51.000;6.980;2023-05-11T08:18:55;68980.97;;;23.99;100.00
5988;BME280;3021;51.000;6.980;2023-05-11T08:21:20;69026.97;;;24.37;100.00
5988;BME280;3021;51.000;6.980;2023-05-11T08:23:46;69083.56;;;24.84;100.00
5988;BME280;3021;51.000;6.980;2023-05-11T08:26:14;69111.72;;;25.12;100.00
5988;BME280;3021;51.000;6.980;2023-05-11T08:28:40;68990.66;;;24.03;100.00
5988;BME280;3021;51.000;6.980;2023-05-11T08:31:05;68869.78;;;22.96;100.00
5988;BME280;3021;51.000;6.980;2023-05-11T08:33:31;68788.22;;;22.26;100.00
5988;BME280;3021;51.000;6.980;2023-05-11T08:35:56;68771.78;;;22.09;100.00
5988;BME280;3021;51.000;6.980;2023-05-11T08:38:22;68782.28;;;22.19;100.00
5988;BME280;3021;51.000;6.980;2023-05-11T08:40:50;68835.94;;;22.66;100.00
5988;BME280;3021;51.000;6.980;2023-05-11T08:43:17;68944.50;;;23.62;100.00
5988;BME280;3021;51.000;6.980;2023-05-11T08:45:43;68991.84;;;24.04;100.00
5988;BME280;3021;51.000;6.980;2023-05-11T08:48:13;68953.50;;;23.75;100.00
5988;BME280;3021;51.000;6.980;2023-05-11T08:50:40;68953.28;;;23.70;100.00
5988;BME280;3021;51.000;6.980;2023-05-11T08:53:05;68968.00;;;23.85;100.00
5988;BME280;3021;51.000;6.980;2023-05-11T08:55:32;68953.16;;;23.67;100.00
5988;BME280;3021;51.000;6.980;2023-05-11T08:57:59;68899.69;;;23.25;100.00
5988;BME280;3021;51.000;6.980;2023-05-11T09:00:26;68861.75;;;22.91;100.00
5988;BME280;3021;51.000;6.980;2023-05-11T09:02:54;68823.94;;;22.60;100.00
5988;BME280;3021;51.000;6.980;2023-05-11T09:05:20;68816.72;;;22.49;100.00
5988;BME280;3021;51.000;6.980;2023-05-11T09:07:49;68811.44;;;22.44;100.00
5988;BME280;3021;51.000;6.980;2023-05-11T09:10:17;68821.97;;;22.54;100.00
5988;BME280;3021;51.000;6.980;2023-05-11T09:12:42;68840.03;;;22.70;100.00
5988;BME280;3021;51.000;6.980;2023-05-11T09:15:08;68887.31;;;23.11;100.00
5988;BME280;3021;51.000;6.980;2023-05-11T09:17:33;68907.88;;;23.32;100.00
5988;BME280;3021;51.000;6.980;2023-05-11T09:20:05;68908.81;;;23.28;100.00
5988;BME280;3021;51.000;6.980;2023-05-11T09:22:41;68777.59;;;22.15;100.00
5988;BME280;3021;51.000;6.980;2023-05-11T09:25:10;68711.72;;;21.56;100.00
5988;BME280;3021;51.000;6.980;2023-05-11T09:27:40;68669.75;;;21.19;100.00
5988;BME280;3021;51.000;6.980;2023-05-11T09:30:10;68632.34;;;20.84;100.00
5988;BME280;3021;51.000;6.980;2023-05-11T09:32:50;68610.31;;;20.67;100.00
5988;BME280;3021;51.000;6.980;2023-05-11T09:38:08;68602.59;;;20.58;100.00
5988;BME280;3021;51.000;6.980;2023-05-11T09:43:02;68633.03;;;20.87;100.00
5988;BME280;3021;51.000;6.980;2023-05-11T09:45:34;68589.31;;;20.48;100.00
5988;BME280;3021;51.000;6.980;2023-05-11T09:48:05;68575.94;;;20.36;100.00
5988;BME280;3021;51.000;6.980;2023-05-11T09:50:34;68560.34;;;20.25;100.00
5988;BME280;3021;51.000;6.980;2023-05-11T09:53:00;68539.81;;;20.05;100.00
5988;BME280;3021;51.000;6.980;2023-05-11T09:55:26;68556.00;;;20.16;100.00
5988;BME280;3021;51.000;6.980;2023-05-11T09:57:53;68607.97;;;20.65;100.00
5988;BME280;3021;51.000;6.980;2023-05-11T10:00:19;68681.28;;;21.27;100.00
5988;BME280;3021;51.000;6.980;2023-05-11T10:02:45;68716.97;;;21.61;100.00
5988;BME280;3021;51.000;6.980;2023-05-11T10:05:22;68776.44;;;22.14;100.00
5988;BME280;3021;51.000;6.980;2023-05-11T10:07:55;68773.97;;;22.09;100.00
5988;BME280;3021;51.000;6.980;2023-05-11T10:10:22;68791.13;;;22.29;100.00
5988;BME280;3021;51.000;6.980;2023-05-11T10:12:48;68855.31;;;22.86;100.00
5988;BME280;3021;51.000;6.980;2023-05-11T10:15:15;68884.97;;;23.09;100.00
5988;BME280;3021;51.000;6.980;2023-05-11T10:17:42;68869.22;;;22.95;100.00
5988;BME280;3021;51.000;6.980;2023-05-11T10:20:09;68832.91;;;22.61;100.00
5988;BME280;3021;51.000;6.980;2023-05-11T10:22:35;68856.94;;;22.85;100.00
5988;BME280;3021;51.000;6.980;2023-05-11T10:25:01;68905.41;;;23.27;100.00
5988;BME280;3021;51.000;6.980;2023-05-11T10:27:27;68946.84;;;23.64;100.00
5988;BME280;3021;51.000;6.980;2023-05-11T10:29:53;68982.50;;;23.95;100.00
5988;BME280;3021;51.000;6.980;2023-05-11T10:32:19;68991.84;;;24.04;100.00
5988;BME280;3021;51.000;6.980;2023-05-11T10:34:46;68925.84;;;23.45;100.00
5988;BME280;3021;51.000;6.980;2023-05-11T10:37:13;68891.50;;;23.18;100.00
5988;BME280;3021;51.000;6.980;2023-05-11T10:39:39;68866.88;;;22.93;100.00
5988;BME280;3021;51.000;6.980;2023-05-11T10:45:23;68808.53;;;22.42;100.00
5988;BME280;3021;51.000;6.980;2023-05-11T10:51:15;68744.38;;;21.85;100.00
5988;BME280;3021;51.000;6.980;2023-05-11T10:54:08;68716.97;;;21.61;100.00
5988;BME280;3021;51.000;6.980;2023-05-11T11:02:02;68934.13;;;23.55;100.00
5988;BME280;3021;51.000;6.980;2023-05-11T11:04:49;69033.88;;;24.41;100.00
5988;BME280;3021;51.000;6.980;2023-05-11T11:07:15;69017.06;;;24.28;100.00
5988;BME280;3021;51.000;6.980;2023-05-11T11:10:00;68914.16;;;23.35;100.00
5988;BME280;3021;51.000;6.980;2023-05-11T11:12:27;68880.88;;;23.06;100.00
5988;BME280;3021;51.000;6.980;2023-05-11T11:15:04;68852.88;;;22.81;100.00
5988;BME280;3021;51.000;6.980;2023-05-11T11:17:34;68805.16;;;22.41;100.00
5988;BME280;3021;51.000;6.980;2023-05-11T11:25:00;68819.63;;;22.52;100.00
5988;BME280;3021;51.000;6.980;2023-05-11T11:30:26;68927.00;;;23.46;100.00
5988;BME280;3021;51.000;6.980;2023-05-11T11:32:55;68964.25;;;23.77;100.00
5988;BME280;3021;51.000;6.980;2023-05-11T11:38:07;68861.03;;;22.88;100.00
5988;BME280;3021;51.000;6.980;2023-05-11T11:40:37;68809.69;;;22.43;100.00
5988;BME280;3021;51.000;6.980;2023-05-11T11:43:13;68757.78;;;21.97;100.00
5988;BME280;3021;51.000;6.980;2023-05-11T11:45:40;68736.91;;;21.81;100.00
5988;BME280;3021;51.000;6.980;2023-05-11T11:48:15;68677.31;;;21.26;100.00
5988;BME280;3021;51.000;6.980;2023-05-11T11:50:42;68668.13;;;21.20;100.00
5988;BME280;3021;51.000;6.980;2023-05-11T11:53:09;68685.38;;;21.31;100.00
5988;BME280;3021;51.000;6.980;2023-05-11T11:55:45;68696.41;;;21.40;100.00
5988;BME280;3021;51.000;6.980;2023-05-11T12:01:14;68709.41;;;21.54;100.00
5988;BME280;3021;51.000;6.980;2023-05-11T12:03:41;68757.78;;;21.97;100.00
5988;BME280;3021;51.000;6.980;2023-05-11T12:06:08;68787.63;;;22.26;100.00
5988;BME280;3021;51.000;6.980;2023-05-11T12:08:35;68822.53;;;22.54;100.00
5988;BME280;3021;51.000;6.980;2023-05-11T12:11:02;68838.88;;;22.69;100.00
5988;BME280;3021;51.000;6.980;2023-05-11T12:13:28;68856.25;;;22.82;100.00
5988;BME280;3021;51.000;6.980;2023-05-11T12:16:13;68887.44;;;23.14;100.00
5988;BME280;3021;51.000;6.980;2023-05-11T12:18:50;68927.00;;;23.46;100.00
5988;BME280;3021;51.000;6.980;2023-05-11T12:21:20;68939.84;;;23.58;100.00
5988;BME280;3021;51.000;6.980;2023-05-11T12:23:56;68923.03;;;23.45;100.00
5988;BME280;3021;51.000;6.980;2023-05-11T12:26:23;68921.28;;;23.44;100.00
5988;BME280;3021;51.000;6.980;2023-05-11T12:28:50;68956.31;;;23.75;100.00
5988;BME280;3021;51.000;6.980;2023-05-11T12:31:18;68944.06;;;23.64;100.00
5988;BME280;3021;51.000;6.980;2023-05-11T12:33:45;68938.09;;;23.56;100.00
5988;BME280;3021;51.000;6.980;2023-05-11T12:36:13;68952.09;;;23.69;100.00
5988;BME280;3021;51.000;6.980;2023-05-11T12:38:45;68977.25;;;23.91;100.00
5988;BME280;3021;51.000;6.980;2023-05-11T12:41:18;69014.50;;;24.21;100.00
5988;BME280;3021;51.000;6.980;2023-05-11T12:43:45;69001.75;;;24.12;100.00
5988;BME280;3021;51.000;6.980;2023-05-11T12:46:11;68998.25;;;24.09;100.00
5988;BME280;3021;51.000;6.980;2023-05-11T12:48:37;68957.94;;;23.74;100.00
5988;BME280;3021;51.000;6.980;2023-05-11T12:51:03;68906.00;;;23.28;100.00
5988;BME280;3021;51.000;6.980;2023-05-11T12:53:33;68834.31;;;22.67;100.00
5988;BME280;3021;51.000;6.980;2023-05-11T12:56:00;68826.50;;;22.55;100.00
5988;BME280;3021;51.000;6.980;2023-05-11T12:58:37;68835.38;;;22.66;100.00
5988;BME280;3021;51.000;6.980;2023-05-11T13:01:04;68859.75;;;22.85;100.00
5988;BME280;3021;51.000;6.980;2023-05-11T13:03:32;68900.84;;;23.26;100.00
5988;BME280;3021;51.000;6.980;2023-05-11T13:08:31;68956.91;;;23.75;100.00
5988;BME280;3021;51.000;6.980;2023-05-11T13:11:21;68942.06;;;23.57;100.00
5988;BME280;3021;51.000;6.980;2023-05-11T13:13:49;68939.38;;;23.60;100.00
5988;BME280;3021;51.000;6.980;2023-05-11T13:16:29;68919.41;;;23.40;100.00
5988;BME280;3021;51.000;6.980;2023-05-11T13:18:56;68851.25;;;22.82;100.00
5988;BME280;3021;51.000;6.980;2023-05-11T13:21:21;68736.22;;;21.78;100.00
5988;BME280;3021;51.000;6.980;2023-05-11T13:23:50;68716.28;;;21.58;100.00
5988;BME280;3021;51.000;6.980;2023-05-11T13:26:21;68738.09;;;21.82;100.00
5988;BME280;3021;51.000;6.980;2023-05-11T13:28:48;68727.47;;;21.70;100.00
5988;BME280;3021;51.000;6.980;2023-05-11T13:31:13;68703.44;;;21.47;100.00
5988;BME280;3021;51.000;6.980;2023-05-11T13:33:39;68711.97;;;21.62;100.00
5988;BME280;3021;51.000;6.980;2023-05-11T13:36:04;68726.88;;;21.70;100.00
5988;BME280;3021;51.000;6.980;2023-05-11T13:38:30;68694.66;;;21.39;100.00
5988;BME280;3021;51.000;6.980;2023-05-11T13:40:55;68667.88;;;21.15;100.00
5988;BME280;3021;51.000;6.980;2023-05-11T13:43:20;68633.63;;;20.87;100.00
5988;BME280;3021;51.000;6.980;2023-05-11T13:45:46;68620.69;;;20.74;100.00
5988;BME280;3021;51.000;6.980;2023-05-11T13:48:11;68568.09;;;20.25;100.00
5988;BME280;3021;51.000;6.980;2023-05-11T13:50:36;68557.16;;;20.17;100.00
5988;BME280;3021;51.000;6.980;2023-05-11T13:53:02;68543.34;;;20.08;100.00
5988;BME280;3021;51.000;6.980;2023-05-11T13:55:28;68532.28;;;19.98;100.00
5988;BME280;3021;51.000;6.980;2023-05-11T13:57:54;68521.22;;;19.88;100.00